createdAt,value
2022-11-23T00:00:29.447Z,5.72
2022-11-23T00:02:57.110Z,5.80
2022-11-23T00:05:24.637Z,5.82
2022-11-23T00:07:52.200Z,6.00
2022-11-23T00:10:19.736Z,5.82
2022-11-23T00:12:47.254Z,5.57
2022-11-23T00:15:16.269Z,6.28
2022-11-23T00:17:43.818Z,5.78
2022-11-23T00:20:11.536Z,5.85
2022-11-23T00:22:39.007Z,6.55
2022-11-23T00:25:07.262Z,5.82
2022-11-23T00:27:34.887Z,5.22
2022-11-23T00:30:02.472Z,5.50
2022-11-23T00:32:31.493Z,5.43
2022-11-23T00:34:59.016Z,5.13
2022-11-23T00:37:26.618Z,4.97
2022-11-23T00:39:54.103Z,6.00
2022-11-23T00:42:21.706Z,5.25
2022-11-23T00:44:49.319Z,5.22
2022-11-23T00:47:16.771Z,4.80
2022-11-23T00:49:45.893Z,4.60
2022-11-23T00:52:13.473Z,4.70
2022-11-23T00:54:40.901Z,4.90
2022-11-23T00:57:08.595Z,4.78
2022-11-23T00:59:36.100Z,4.68
2022-11-23T01:02:03.717Z,4.68
2022-11-23T01:04:31.411Z,4.53
2022-11-23T01:07:00.348Z,3.95
2022-11-23T01:09:27.972Z,4.45
2022-11-23T01:11:55.505Z,4.63
2022-11-23T01:14:23.183Z,4.45
2022-11-23T01:16:50.764Z,4.35
2022-11-23T01:19:20.084Z,5.13
2022-11-23T01:21:47.768Z,5.00
2022-11-23T01:24:18.466Z,4.25
2022-11-23T01:26:46.164Z,4.47
2022-11-23T01:29:13.618Z,4.30
2022-11-23T01:31:46.177Z,4.43
2022-11-23T01:34:14.480Z,3.73
2022-11-23T01:36:42.200Z,3.70
2022-11-23T01:39:10.897Z,4.50
2022-11-23T01:41:41.392Z,4.53
2022-11-23T01:44:26.882Z,3.95
2022-11-23T01:46:54.441Z,4.07
2022-11-23T01:49:21.902Z,3.70
2022-11-23T01:51:50.130Z,3.67
2022-11-23T01:54:18.448Z,3.10
2022-11-23T01:56:50.579Z,3.30
2022-11-23T01:59:18.141Z,3.40
2022-11-23T02:01:46.072Z,3.10
2022-11-23T02:04:16.745Z,3.45
2022-11-23T02:06:44.298Z,3.17
2022-11-23T02:09:11.883Z,3.38
2022-11-23T02:11:39.434Z,3.28
2022-11-23T02:14:08.428Z,3.65
2022-11-23T02:16:36.343Z,2.70
2022-11-23T02:19:03.813Z,3.15
2022-11-23T02:21:31.308Z,3.45
2022-11-23T02:24:01.728Z,3.05
2022-11-23T02:26:31.654Z,2.65
2022-11-23T02:29:01.762Z,2.65
2022-11-23T02:31:29.308Z,2.10
2022-11-23T02:33:56.938Z,3.03
2022-11-23T02:36:38.711Z,3.10
2022-11-23T02:39:09.802Z,2.53
2022-11-23T02:41:40.936Z,2.30
2022-11-23T02:44:12.590Z,2.22
2022-11-23T02:46:40.172Z,2.40
2022-11-23T02:49:07.776Z,2.42
2022-11-23T02:51:35.398Z,2.15
2022-11-23T02:54:03.001Z,2.13
2022-11-23T02:56:30.536Z,2.10
2022-11-23T02:58:59.522Z,2.30
2022-11-23T03:01:27.084Z,2.05
2022-11-23T03:03:54.634Z,1.60
2022-11-23T03:06:22.256Z,1.90
2022-11-23T03:08:49.829Z,1.90
2022-11-23T03:11:17.399Z,2.00
2022-11-23T03:13:45.010Z,1.60
2022-11-23T03:16:13.947Z,1.70
2022-11-23T03:18:41.474Z,1.63
2022-11-23T03:21:08.948Z,1.88
2022-11-23T03:23:36.478Z,1.60
2022-11-23T03:26:07.361Z,1.88
2022-11-23T03:28:39.069Z,1.67
2022-11-23T03:31:06.604Z,1.73
2022-11-23T03:33:35.644Z,1.70
2022-11-23T03:36:03.385Z,1.50
2022-11-23T03:38:30.965Z,1.48
2022-11-23T03:40:58.574Z,1.48
2022-11-23T03:43:26.126Z,1.50
2022-11-23T03:45:53.562Z,1.63
2022-11-23T03:48:21.128Z,1.48
2022-11-23T03:50:50.106Z,1.20
2022-11-23T03:53:17.653Z,1.30
2022-11-23T03:55:46.696Z,1.20
2022-11-23T03:58:14.253Z,1.35
2022-11-23T04:00:41.744Z,1.25
2022-11-23T04:03:09.345Z,1.20
2022-11-23T04:05:36.886Z,1.48
2022-11-23T04:08:06.280Z,1.58
2022-11-23T04:10:33.804Z,1.30
2022-11-23T04:13:01.359Z,1.40
2022-11-23T04:15:28.894Z,1.10
2022-11-23T04:17:56.387Z,1.17
2022-11-23T04:20:23.981Z,1.20
2022-11-23T04:22:51.559Z,1.35
2022-11-23T04:25:20.604Z,1.08
2022-11-23T04:27:48.262Z,1.10
2022-11-23T04:30:16.011Z,1.42
2022-11-23T04:32:44.907Z,1.20
2022-11-23T04:35:12.500Z,0.82
2022-11-23T04:37:39.985Z,1.20
2022-11-23T04:40:08.799Z,0.50
2022-11-23T04:42:37.784Z,0.35
2022-11-23T04:45:05.793Z,0.50
2022-11-23T04:47:33.261Z,0.40
2022-11-23T04:50:00.739Z,0.40
2022-11-23T04:52:28.287Z,0.45
2022-11-23T04:54:55.862Z,0.30
2022-11-23T04:57:23.387Z,0.40
2022-11-23T04:59:52.348Z,0.32
2022-11-23T05:02:19.793Z,0.47
2022-11-23T05:04:47.418Z,0.30
2022-11-23T05:07:14.995Z,0.30
2022-11-23T05:09:42.614Z,0.40
2022-11-23T05:12:10.099Z,0.47
2022-11-23T05:14:37.707Z,0.77
2022-11-23T05:17:06.726Z,0.50
2022-11-23T05:19:34.390Z,0.88
2022-11-23T05:22:02.371Z,0.85
2022-11-23T05:24:29.910Z,0.63
2022-11-23T05:26:57.556Z,0.40
2022-11-23T05:29:25.125Z,0.80
2022-11-23T05:31:52.674Z,0.70
2022-11-23T05:34:21.670Z,0.85
2022-11-23T05:36:49.190Z,0.82
2022-11-23T05:39:16.636Z,0.85
2022-11-23T05:41:44.205Z,0.70
2022-11-23T05:44:11.676Z,0.90
2022-11-23T05:46:39.220Z,0.82
2022-11-23T05:49:06.776Z,0.82
2022-11-23T05:51:35.740Z,0.90
2022-11-23T05:54:03.414Z,0.60
2022-11-23T05:56:33.674Z,1.30
2022-11-23T05:59:03.641Z,0.85
2022-11-23T06:01:31.209Z,0.77
2022-11-23T06:03:58.811Z,1.17
2022-11-23T06:06:26.417Z,0.88
2022-11-23T06:08:55.355Z,1.20
2022-11-23T06:11:22.954Z,0.63
2022-11-23T06:13:50.489Z,0.95
2022-11-23T06:16:17.993Z,0.68
2022-11-23T06:18:45.549Z,0.70
2022-11-23T06:21:13.012Z,0.60
2022-11-23T06:23:40.531Z,0.70
2022-11-23T06:26:09.673Z,0.98
2022-11-23T06:28:37.211Z,0.85
2022-11-23T06:31:05.140Z,0.98
2022-11-23T06:33:32.706Z,1.08
2022-11-23T06:36:00.778Z,1.17
2022-11-23T06:38:28.412Z,0.90
2022-11-23T06:40:58.559Z,0.80
2022-11-23T06:43:27.622Z,1.38
2022-11-23T06:45:55.297Z,0.90
2022-11-23T06:48:22.827Z,1.02
2022-11-23T06:50:50.374Z,1.15
2022-11-23T06:53:18.005Z,0.85
2022-11-23T06:55:45.529Z,1.13
2022-11-23T06:58:13.180Z,1.50
2022-11-23T07:00:42.164Z,1.05
2022-11-23T07:03:13.034Z,1.15
2022-11-23T07:05:40.622Z,1.20
2022-11-23T07:08:08.051Z,1.20
2022-11-23T07:10:36.521Z,1.50
2022-11-23T07:13:04.992Z,1.42
2022-11-23T07:15:32.614Z,1.77
2022-11-23T07:18:01.638Z,1.60
2022-11-23T07:20:29.302Z,1.40
2022-11-23T07:23:01.443Z,1.55
2022-11-23T07:25:29.124Z,1.35
2022-11-23T07:27:57.257Z,1.63
2022-11-23T07:30:29.154Z,1.45
2022-11-23T07:33:01.179Z,1.40
2022-11-23T07:35:28.737Z,1.48
2022-11-23T07:37:56.235Z,1.60
2022-11-23T07:40:23.851Z,2.13
2022-11-23T07:42:51.344Z,1.95
2022-11-23T07:45:19.066Z,1.40
2022-11-23T07:47:46.613Z,1.05
2022-11-23T07:50:15.959Z,1.73
2022-11-23T07:52:43.529Z,1.52
2022-11-23T07:55:11.014Z,1.80
2022-11-23T07:57:38.522Z,1.95
2022-11-23T08:00:07.992Z,2.00
2022-11-23T08:02:35.591Z,1.92
2022-11-23T08:05:03.194Z,2.15
2022-11-23T08:07:32.278Z,1.83
2022-11-23T08:09:59.869Z,2.17
2022-11-23T08:12:27.446Z,1.42
2022-11-23T08:14:54.764Z,2.03
2022-11-23T08:17:22.387Z,1.40
2022-11-23T08:19:50.121Z,2.28
2022-11-23T08:22:17.578Z,1.88
2022-11-23T08:24:46.730Z,2.00
2022-11-23T08:27:14.239Z,1.95
2022-11-23T08:29:41.689Z,2.65
2022-11-23T08:32:09.395Z,1.75
2022-11-23T08:34:37.073Z,1.70
2022-11-23T08:37:04.622Z,2.35
2022-11-23T08:39:32.097Z,1.70
2022-11-23T08:42:01.130Z,2.85
2022-11-23T08:44:28.902Z,2.15
2022-11-23T08:46:56.533Z,2.22
2022-11-23T08:49:23.992Z,2.83
2022-11-23T08:51:51.425Z,2.67
2022-11-23T08:54:19.167Z,1.70
2022-11-23T08:56:46.729Z,2.17
2022-11-23T08:59:15.784Z,2.25
2022-11-23T09:01:43.463Z,2.90
2022-11-23T09:04:12.334Z,1.95
2022-11-23T09:06:41.873Z,1.88
2022-11-23T09:09:09.437Z,2.38
2022-11-23T09:11:36.962Z,2.60
2022-11-23T09:14:04.581Z,2.80
2022-11-23T09:16:34.242Z,2.22
2022-11-23T09:19:02.112Z,2.42
2022-11-23T09:21:29.652Z,2.50
2022-11-23T09:23:57.196Z,2.42
2022-11-23T09:26:24.738Z,1.88
2022-11-23T09:28:52.317Z,2.70
2022-11-23T09:31:19.855Z,1.90
2022-11-23T09:33:51.900Z,2.15
2022-11-23T09:36:19.382Z,2.17
2022-11-23T09:38:56.303Z,2.67
2022-11-23T09:41:50.751Z,2.17
2022-11-23T09:44:21.327Z,2.00
2022-11-23T09:46:56.766Z,1.90
2022-11-23T09:49:28.118Z,2.25
2022-11-23T09:51:55.711Z,1.77
2022-11-23T09:54:26.135Z,1.92
2022-11-23T09:56:58.585Z,1.88
2022-11-23T09:59:40.939Z,2.15
2022-11-23T10:02:13.224Z,1.92
2022-11-23T10:04:43.191Z,1.80
2022-11-23T10:07:18.794Z,1.63
2022-11-23T10:09:51.328Z,2.30
2022-11-23T10:12:29.815Z,1.83
2022-11-23T10:15:12.389Z,1.90
2022-11-23T10:18:13.974Z,1.95
2022-11-23T10:20:51.779Z,2.42
2022-11-23T10:23:27.706Z,1.27
2022-11-23T10:25:55.297Z,2.10
2022-11-23T10:28:23.119Z,1.55
2022-11-23T10:30:54.936Z,2.20
2022-11-23T10:33:26.761Z,1.50
2022-11-23T10:35:55.784Z,1.65
2022-11-23T10:38:26.796Z,1.80
2022-11-23T10:41:00.567Z,2.17
2022-11-23T10:43:30.006Z,1.70
2022-11-23T10:46:23.238Z,1.33
2022-11-23T10:48:50.951Z,1.77
2022-11-23T10:51:24.531Z,1.60
2022-11-23T10:53:52.715Z,1.80
2022-11-23T10:56:20.289Z,1.27
2022-11-23T10:58:47.816Z,1.98
2022-11-23T11:01:16.113Z,1.95
2022-11-23T11:03:43.703Z,1.90
2022-11-23T11:06:11.795Z,1.27
2022-11-23T11:08:50.656Z,1.83
2022-11-23T11:11:24.486Z,1.90
2022-11-23T11:13:52.176Z,1.33
2022-11-23T11:16:21.168Z,1.63
2022-11-23T11:18:48.806Z,1.40
2022-11-23T11:21:21.413Z,1.52
2022-11-23T11:23:53.625Z,1.05
2022-11-23T11:26:22.175Z,1.40
2022-11-23T11:28:50.527Z,1.50
2022-11-23T11:31:25.863Z,1.17
2022-11-23T11:33:57.032Z,1.73
2022-11-23T11:36:24.652Z,1.40
2022-11-23T11:39:17.291Z,1.55
2022-11-23T11:41:41.987Z,1.20
2022-11-23T11:44:13.843Z,1.02
2022-11-23T11:46:43.346Z,1.17
2022-11-23T11:49:13.696Z,1.65
2022-11-23T11:51:43.282Z,1.45
2022-11-23T11:54:18.365Z,1.50
2022-11-23T11:56:46.825Z,1.65
2022-11-23T11:59:16.985Z,1.30
2022-11-23T12:01:48.643Z,1.40
2022-11-23T12:04:19.235Z,1.40
2022-11-23T12:06:48.810Z,1.73
2022-11-23T12:09:19.839Z,1.23
2022-11-23T12:11:47.439Z,1.30
2022-11-23T12:14:15.504Z,1.60
2022-11-23T12:17:04.060Z,1.17
2022-11-23T12:19:38.361Z,1.45
2022-11-23T12:22:17.943Z,1.10
2022-11-23T12:24:58.337Z,1.02
2022-11-23T12:27:30.011Z,1.00
2022-11-23T12:30:17.789Z,1.02
2022-11-23T12:32:53.217Z,1.17
2022-11-23T12:35:29.068Z,1.50
2022-11-23T12:38:03.579Z,1.40
2022-11-23T12:40:43.053Z,2.15
2022-11-23T12:43:13.771Z,1.20
2022-11-23T12:45:50.853Z,1.20
2022-11-23T12:48:27.940Z,1.25
2022-11-23T12:50:59.946Z,1.45
2022-11-23T12:53:34.188Z,1.13
2022-11-23T12:56:08.192Z,1.60
2022-11-23T12:58:36.112Z,1.45
2022-11-23T13:01:10.766Z,1.58
2022-11-23T13:04:09.718Z,1.40
2022-11-23T13:07:26.928Z,1.30
2022-11-23T13:10:03.916Z,1.20
2022-11-23T13:12:51.750Z,1.00
2022-11-23T13:15:27.629Z,1.27
2022-11-23T13:17:58.121Z,1.67
2022-11-23T13:20:49.142Z,1.65
2022-11-23T13:23:16.694Z,1.20
2022-11-23T13:25:44.228Z,1.27
2022-11-23T13:28:31.056Z,1.52
2022-11-23T13:31:23.867Z,1.27
2022-11-23T13:33:52.784Z,1.45
2022-11-23T13:37:12.827Z,1.30
2022-11-23T13:40:02.808Z,1.38
2022-11-23T13:42:31.680Z,1.20
2022-11-23T13:45:24.849Z,1.23
2022-11-23T13:48:41.270Z,1.10
2022-11-23T13:51:05.261Z,1.15
2022-11-23T13:53:33.871Z,1.17
2022-11-23T13:56:18.445Z,1.33
2022-11-23T13:58:53.889Z,1.30
2022-11-23T14:02:03.482Z,1.30
2022-11-23T14:04:31.264Z,1.40
2022-11-23T14:07:02.108Z,1.70
2022-11-23T14:09:33.626Z,1.60
2022-11-23T14:12:20.804Z,1.75
2022-11-23T14:14:52.008Z,1.50
2022-11-23T14:17:58.656Z,1.50
2022-11-23T14:20:35.731Z,1.55
2022-11-23T14:23:24.294Z,1.10
2022-11-23T14:25:56.484Z,1.30
2022-11-23T14:28:33.833Z,2.65
2022-11-23T14:31:07.865Z,1.02
2022-11-23T14:36:11.747Z,1.58
2022-11-23T14:39:01.564Z,1.30
2022-11-23T14:41:29.578Z,1.75
2022-11-23T14:43:57.101Z,1.92
2022-11-23T14:46:24.923Z,1.13
2022-11-23T14:49:05.320Z,1.85
2022-11-23T14:51:33.067Z,2.15
2022-11-23T14:54:01.863Z,2.25
2022-11-23T14:56:32.791Z,1.65
2022-11-23T14:59:02.177Z,1.83
2022-11-23T15:01:29.639Z,1.65
2022-11-23T15:03:59.863Z,1.85
2022-11-23T15:06:29.007Z,1.77
2022-11-23T15:09:01.908Z,2.00
2022-11-23T15:11:29.299Z,1.73
2022-11-23T15:13:56.903Z,1.70
2022-11-23T15:16:24.329Z,1.80
2022-11-23T15:18:51.925Z,2.20
2022-11-23T15:21:26.954Z,2.50
2022-11-23T15:23:56.221Z,2.50
2022-11-23T15:26:46.324Z,2.35
2022-11-23T15:29:29.998Z,2.75
2022-11-23T15:32:22.456Z,2.47
2022-11-23T15:34:45.405Z,3.13
2022-11-23T15:37:14.249Z,2.22
2022-11-23T15:39:41.960Z,3.08
2022-11-23T15:42:09.781Z,2.25
2022-11-23T15:44:38.508Z,2.55
2022-11-23T15:47:06.220Z,3.70
2022-11-23T15:49:37.283Z,4.05
2022-11-23T15:52:04.844Z,3.17
2022-11-23T15:54:35.612Z,3.05
2022-11-23T15:57:03.473Z,3.53
2022-11-23T15:59:32.348Z,2.92
2022-11-23T16:01:59.989Z,3.20
2022-11-23T16:04:28.859Z,2.75
2022-11-23T16:06:56.474Z,3.83
2022-11-23T16:09:54.654Z,3.42
2022-11-23T16:12:27.120Z,2.22
2022-11-23T16:14:55.245Z,3.08
2022-11-23T16:17:23.941Z,3.03
2022-11-23T16:19:51.761Z,3.22
2022-11-23T16:22:28.733Z,3.00
2022-11-23T16:25:04.513Z,2.33
2022-11-23T16:27:31.839Z,2.40
2022-11-23T16:30:03.131Z,2.35
2022-11-23T16:32:31.989Z,2.70
2022-11-23T16:35:09.062Z,2.75
2022-11-23T16:37:36.470Z,4.05
2022-11-23T16:40:06.845Z,3.30
2022-11-23T16:42:34.233Z,3.00
2022-11-23T16:45:04.163Z,3.33
2022-11-23T16:47:31.491Z,2.58
2022-11-23T16:49:59.071Z,2.63
2022-11-23T16:52:26.541Z,3.15
2022-11-23T16:54:53.879Z,2.47
2022-11-23T16:57:28.243Z,2.97
2022-11-23T16:59:55.988Z,2.67
2022-11-23T17:02:23.724Z,2.75
2022-11-23T17:04:51.244Z,2.83
2022-11-23T17:07:18.761Z,2.45
2022-11-23T17:09:46.080Z,2.22
2022-11-23T17:12:15.656Z,2.80
2022-11-23T17:14:45.987Z,2.30
2022-11-23T17:17:16.586Z,4.32
2022-11-23T17:19:43.972Z,2.75
2022-11-23T17:22:11.322Z,2.85
2022-11-23T17:24:38.845Z,4.32
2022-11-23T17:27:06.232Z,5.78
2022-11-23T17:29:37.727Z,8.57
2022-11-23T17:32:10.813Z,7.38
2022-11-23T17:34:38.183Z,6.25
2022-11-23T17:37:05.483Z,6.00
2022-11-23T17:39:33.142Z,7.10
2022-11-23T17:42:04.851Z,6.50
2022-11-23T17:44:32.902Z,6.10
2022-11-23T17:47:01.447Z,6.85
2022-11-23T17:49:30.524Z,5.50
2022-11-23T17:51:58.498Z,6.18
2022-11-23T17:54:25.780Z,4.53
2022-11-23T17:56:53.210Z,4.57
2022-11-23T17:59:20.565Z,4.32
2022-11-23T18:01:48.019Z,3.95
2022-11-23T18:04:15.392Z,4.00
2022-11-23T18:06:44.113Z,4.07
2022-11-23T18:09:11.656Z,4.03
2022-11-23T18:11:39.207Z,4.47
2022-11-23T18:14:06.521Z,4.15
2022-11-23T18:16:33.916Z,3.85
2022-11-23T18:19:01.324Z,4.38
2022-11-23T18:21:28.646Z,4.25
2022-11-23T18:24:02.990Z,4.15
2022-11-23T18:26:31.779Z,3.90
2022-11-23T18:28:59.137Z,3.60
2022-11-23T18:31:26.560Z,4.32
2022-11-23T18:33:53.970Z,4.25
2022-11-23T18:36:21.481Z,3.50
2022-11-23T18:38:49.834Z,3.25
2022-11-23T18:41:18.964Z,3.65
2022-11-23T18:43:46.252Z,3.15
2022-11-23T18:46:14.049Z,3.03
2022-11-23T18:48:41.661Z,3.63
2022-11-23T18:51:09.084Z,3.05
2022-11-23T18:53:36.400Z,2.95
2022-11-23T18:56:03.924Z,3.17
2022-11-23T18:58:34.186Z,3.25
2022-11-23T19:01:10.828Z,3.03
2022-11-23T19:03:40.413Z,3.38
2022-11-23T19:06:08.113Z,3.42
2022-11-23T19:08:39.295Z,3.63
2022-11-23T19:11:07.148Z,3.92
2022-11-23T19:13:37.197Z,3.83
2022-11-23T19:16:09.807Z,4.15
2022-11-23T19:18:37.240Z,4.10
2022-11-23T19:21:12.843Z,4.55
2022-11-23T19:23:40.303Z,4.18
2022-11-23T19:26:07.572Z,4.88
2022-11-23T19:28:36.392Z,4.05
2022-11-23T19:31:11.287Z,3.83
2022-11-23T19:33:38.880Z,4.43
2022-11-23T19:36:07.206Z,3.15
2022-11-23T19:38:34.548Z,3.15
2022-11-23T19:41:02.031Z,2.95
2022-11-23T19:43:29.406Z,4.13
2022-11-23T19:46:00.956Z,3.10
2022-11-23T19:48:29.913Z,3.30
2022-11-23T19:50:57.474Z,3.70
2022-11-23T19:53:28.014Z,2.95
2022-11-23T19:56:01.156Z,3.00
2022-11-23T19:58:28.598Z,2.78
2022-11-23T20:01:00.809Z,3.00
2022-11-23T20:03:28.243Z,3.03
2022-11-23T20:05:56.910Z,2.92
2022-11-23T20:08:24.149Z,3.03
2022-11-23T20:10:51.544Z,2.85
2022-11-23T20:13:20.524Z,2.90
2022-11-23T20:15:47.840Z,2.92
2022-11-23T20:18:16.695Z,2.30
2022-11-23T20:20:44.468Z,2.88
2022-11-23T20:23:11.793Z,2.28
2022-11-23T20:25:39.292Z,2.50
2022-11-23T20:28:06.760Z,2.60
2022-11-23T20:30:34.023Z,2.10
2022-11-23T20:33:07.931Z,2.95
2022-11-23T20:38:03.750Z,2.88
2022-11-23T20:40:31.009Z,2.67
2022-11-23T20:42:58.349Z,3.25
2022-11-23T20:45:25.663Z,2.83
2022-11-23T20:47:52.961Z,3.47
2022-11-23T20:50:20.274Z,2.15
2022-11-23T20:52:48.984Z,1.85
2022-11-23T20:55:16.425Z,2.55
2022-11-23T20:57:43.744Z,2.72
2022-11-23T21:00:12.459Z,2.22
2022-11-23T21:02:39.927Z,2.00
2022-11-23T21:05:08.233Z,2.03
2022-11-23T21:07:35.609Z,1.90
2022-11-23T21:10:05.042Z,2.03
2022-11-23T21:12:32.393Z,2.00
2022-11-23T21:14:59.789Z,1.75
2022-11-23T21:17:27.125Z,1.98
2022-11-23T21:19:54.455Z,1.70
2022-11-23T21:22:21.766Z,2.40
2022-11-23T21:24:49.076Z,2.03
2022-11-23T21:27:17.844Z,2.95
2022-11-23T21:29:45.267Z,2.50
2022-11-23T21:32:12.585Z,2.78
2022-11-23T21:34:39.893Z,3.20
2022-11-23T21:37:09.384Z,3.53
2022-11-23T21:39:36.826Z,4.25
2022-11-23T21:42:04.192Z,5.32
2022-11-23T21:44:33.149Z,7.03
2022-11-23T21:47:00.891Z,8.50
2022-11-23T21:49:28.313Z,8.02
2022-11-23T21:51:55.663Z,9.48
2022-11-23T21:54:23.049Z,9.80
2022-11-23T21:56:50.329Z,8.77
2022-11-23T21:59:17.700Z,8.98
2022-11-23T22:01:46.878Z,7.93
2022-11-23T22:04:14.554Z,7.80
2022-11-23T22:06:42.403Z,7.60
2022-11-23T22:09:10.402Z,6.25
2022-11-23T22:11:39.312Z,6.35
2022-11-23T22:14:07.672Z,6.78
2022-11-23T22:16:36.218Z,5.70
2022-11-23T22:19:06.215Z,5.45
2022-11-23T22:21:35.498Z,5.65
2022-11-23T22:24:03.108Z,5.00
2022-11-23T22:26:30.629Z,4.80
2022-11-23T22:28:58.208Z,5.00
2022-11-23T22:31:26.111Z,4.80
2022-11-23T22:33:53.822Z,4.80
2022-11-23T22:36:23.349Z,4.97
2022-11-23T22:38:58.020Z,4.00
2022-11-23T22:41:28.786Z,4.45
2022-11-23T22:43:56.461Z,4.40
2022-11-23T22:46:24.737Z,3.63
2022-11-23T22:48:52.679Z,3.80
2022-11-23T22:51:22.953Z,3.75
2022-11-23T22:53:53.523Z,4.35
2022-11-23T22:56:21.152Z,4.82
2022-11-23T22:58:48.813Z,3.95
2022-11-23T23:01:17.029Z,3.28
2022-11-23T23:03:44.596Z,3.38
2022-11-23T23:06:15.354Z,3.35
2022-11-23T23:08:44.355Z,3.50
2022-11-23T23:11:12.167Z,3.90
2022-11-23T23:13:39.750Z,3.30
2022-11-23T23:16:08.518Z,3.63
2022-11-23T23:18:36.035Z,2.80
2022-11-23T23:21:03.855Z,2.72
2022-11-23T23:23:31.336Z,2.67
2022-11-23T23:26:00.348Z,3.15
2022-11-23T23:28:27.949Z,3.25
2022-11-23T23:31:00.057Z,3.15
2022-11-23T23:33:27.743Z,3.42
2022-11-23T23:35:55.288Z,3.17
2022-11-23T23:38:26.475Z,3.13
2022-11-23T23:40:54.898Z,2.22
2022-11-23T23:43:23.915Z,2.88
2022-11-23T23:45:51.451Z,2.58
2022-11-23T23:48:19.057Z,2.38
2022-11-23T23:50:46.515Z,2.45
2022-11-23T23:53:14.032Z,2.70
2022-11-23T23:55:41.570Z,2.13
2022-11-23T23:58:09.084Z,2.90
